sensor_id;sensor_type;location;lat;lon;timestamp;P1;durP1;ratioP1;P2;durP2;ratioP2
13566;SDS011;6855;48.112;11.298;2024-03-02T00:02:00;6.13;;;4.50;;
13566;SDS011;6855;48.112;11.298;2024-03-02T00:04:29;6.53;;;5.07;;
13566;SDS011;6855;48.112;11.298;2024-03-02T00:06:56;7.93;;;5.33;;
13566;SDS011;6855;48.112;11.298;2024-03-02T00:09:24;9.60;;;5.90;;
13566;SDS011;6855;48.112;11.298;2024-03-02T00:11:51;7.37;;;5.30;;
13566;SDS011;6855;48.112;11.298;2024-03-02T00:14:18;8.90;;;6.30;;
13566;SDS011;6855;48.112;11.298;2024-03-02T00:16:45;9.57;;;6.80;;
13566;SDS011;6855;48.112;11.298;2024-03-02T00:19:13;10.97;;;6.43;;
13566;SDS011;6855;48.112;11.298;2024-03-02T00:21:41;9.30;;;6.97;;
13566;SDS011;6855;48.112;11.298;2024-03-02T00:24:12;9.67;;;6.43;;
13566;SDS011;6855;48.112;11.298;2024-03-02T00:26:44;8.10;;;6.40;;
13566;SDS011;6855;48.112;11.298;2024-03-02T00:29:12;11.33;;;7.20;;
13566;SDS011;6855;48.112;11.298;2024-03-02T00:31:40;10.17;;;7.63;;
13566;SDS011;6855;48.112;11.298;2024-03-02T00:34:07;10.07;;;7.30;;
13566;SDS011;6855;48.112;11.298;2024-03-02T00:36:36;8.73;;;6.63;;
13566;SDS011;6855;48.112;11.298;2024-03-02T00:39:05;9.97;;;7.70;;
13566;SDS011;6855;48.112;11.298;2024-03-02T00:41:33;12.30;;;7.30;;
13566;SDS011;6855;48.112;11.298;2024-03-02T00:44:01;11.97;;;8.43;;
13566;SDS011;6855;48.112;11.298;2024-03-02T00:46:29;15.70;;;8.70;;
13566;SDS011;6855;48.112;11.298;2024-03-02T00:48:57;9.87;;;7.77;;
13566;SDS011;6855;48.112;11.298;2024-03-02T00:51:26;13.00;;;8.50;;
13566;SDS011;6855;48.112;11.298;2024-03-02T00:53:53;13.63;;;8.83;;
13566;SDS011;6855;48.112;11.298;2024-03-02T00:56:23;11.47;;;8.60;;
13566;SDS011;6855;48.112;11.298;2024-03-02T00:58:51;13.50;;;8.90;;
13566;SDS011;6855;48.112;11.298;2024-03-02T01:01:18;11.90;;;8.87;;
13566;SDS011;6855;48.112;11.298;2024-03-02T01:03:46;11.27;;;8.73;;
13566;SDS011;6855;48.112;11.298;2024-03-02T01:06:12;12.70;;;7.90;;
13566;SDS011;6855;48.112;11.298;2024-03-02T01:08:39;13.47;;;9.07;;
13566;SDS011;6855;48.112;11.298;2024-03-02T01:11:06;12.23;;;9.20;;
13566;SDS011;6855;48.112;11.298;2024-03-02T01:13:35;13.07;;;9.30;;
13566;SDS011;6855;48.112;11.298;2024-03-02T01:16:03;13.03;;;8.60;;
13566;SDS011;6855;48.112;11.298;2024-03-02T01:18:30;15.23;;;8.80;;
13566;SDS011;6855;48.112;11.298;2024-03-02T01:20:57;10.87;;;8.03;;
13566;SDS011;6855;48.112;11.298;2024-03-02T01:23:24;12.37;;;8.70;;
13566;SDS011;6855;48.112;11.298;2024-03-02T01:25:52;10.77;;;8.17;;
13566;SDS011;6855;48.112;11.298;2024-03-02T01:28:20;13.73;;;8.17;;
13566;SDS011;6855;48.112;11.298;2024-03-02T01:30:49;9.80;;;7.37;;
13566;SDS011;6855;48.112;11.298;2024-03-02T01:33:16;13.60;;;9.00;;
13566;SDS011;6855;48.112;11.298;2024-03-02T01:35:43;11.90;;;8.00;;
13566;SDS011;6855;48.112;11.298;2024-03-02T01:38:11;10.13;;;7.70;;
13566;SDS011;6855;48.112;11.298;2024-03-02T01:40:38;11.00;;;7.87;;
13566;SDS011;6855;48.112;11.298;2024-03-02T01:43:05;13.67;;;7.87;;
13566;SDS011;6855;48.112;11.298;2024-03-02T01:45:32;11.80;;;7.90;;
13566;SDS011;6855;48.112;11.298;2024-03-02T01:48:02;11.33;;;7.83;;
13566;SDS011;6855;48.112;11.298;2024-03-02T01:50:29;10.03;;;7.90;;
13566;SDS011;6855;48.112;11.298;2024-03-02T01:52:57;11.87;;;7.73;;
13566;SDS011;6855;48.112;11.298;2024-03-02T01:55:24;10.50;;;7.30;;
13566;SDS011;6855;48.112;11.298;2024-03-02T01:57:52;11.67;;;7.77;;
13566;SDS011;6855;48.112;11.298;2024-03-02T02:00:20;12.07;;;7.47;;
13566;SDS011;6855;48.112;11.298;2024-03-02T02:02:49;10.47;;;7.77;;
13566;SDS011;6855;48.112;11.298;2024-03-02T02:05:18;10.50;;;7.47;;
13566;SDS011;6855;48.112;11.298;2024-03-02T02:07:45;9.23;;;7.07;;
13566;SDS011;6855;48.112;11.298;2024-03-02T02:10:12;11.23;;;7.80;;
13566;SDS011;6855;48.112;11.298;2024-03-02T02:12:39;10.00;;;7.40;;
13566;SDS011;6855;48.112;11.298;2024-03-02T02:15:21;13.73;;;8.87;;
13566;SDS011;6855;48.112;11.298;2024-03-02T02:17:48;11.13;;;7.47;;
13566;SDS011;6855;48.112;11.298;2024-03-02T02:20:15;11.30;;;8.43;;
13566;SDS011;6855;48.112;11.298;2024-03-02T02:22:54;11.60;;;7.97;;
13566;SDS011;6855;48.112;11.298;2024-03-02T02:25:21;14.97;;;8.67;;
13566;SDS011;6855;48.112;11.298;2024-03-02T02:27:48;14.73;;;10.00;;
13566;SDS011;6855;48.112;11.298;2024-03-02T02:30:18;20.60;;;9.53;;
13566;SDS011;6855;48.112;11.298;2024-03-02T02:32:45;14.37;;;8.83;;
13566;SDS011;6855;48.112;11.298;2024-03-02T02:35:12;11.73;;;8.40;;
13566;SDS011;6855;48.112;11.298;2024-03-02T02:37:40;13.40;;;9.13;;
13566;SDS011;6855;48.112;11.298;2024-03-02T02:40:09;14.90;;;7.77;;
13566;SDS011;6855;48.112;11.298;2024-03-02T02:42:36;11.30;;;7.90;;
13566;SDS011;6855;48.112;11.298;2024-03-02T02:45:03;11.87;;;8.20;;
13566;SDS011;6855;48.112;11.298;2024-03-02T02:47:31;10.10;;;7.53;;
13566;SDS011;6855;48.112;11.298;2024-03-02T02:50:00;14.17;;;8.20;;
13566;SDS011;6855;48.112;11.298;2024-03-02T02:52:30;10.77;;;8.07;;
13566;SDS011;6855;48.112;11.298;2024-03-02T02:54:58;13.97;;;8.33;;
13566;SDS011;6855;48.112;11.298;2024-03-02T02:57:27;13.20;;;8.77;;
13566;SDS011;6855;48.112;11.298;2024-03-02T02:59:56;11.23;;;8.13;;
13566;SDS011;6855;48.112;11.298;2024-03-02T03:02:23;13.57;;;8.97;;
13566;SDS011;6855;48.112;11.298;2024-03-02T03:04:50;11.37;;;8.20;;
13566;SDS011;6855;48.112;11.298;2024-03-02T03:07:17;11.30;;;7.80;;
13566;SDS011;6855;48.112;11.298;2024-03-02T03:09:45;11.83;;;8.70;;
13566;SDS011;6855;48.112;11.298;2024-03-02T03:12:12;13.10;;;9.30;;
13566;SDS011;6855;48.112;11.298;2024-03-02T03:14:41;12.57;;;8.30;;
13566;SDS011;6855;48.112;11.298;2024-03-02T03:17:08;13.27;;;8.27;;
13566;SDS011;6855;48.112;11.298;2024-03-02T03:19:37;12.47;;;8.57;;
13566;SDS011;6855;48.112;11.298;2024-03-02T03:22:05;12.70;;;8.80;;
13566;SDS011;6855;48.112;11.298;2024-03-02T03:24:32;12.53;;;8.87;;
13566;SDS011;6855;48.112;11.298;2024-03-02T03:26:59;10.27;;;7.20;;
13566;SDS011;6855;48.112;11.298;2024-03-02T03:29:26;16.70;;;8.37;;
13566;SDS011;6855;48.112;11.298;2024-03-02T03:31:55;10.30;;;7.80;;
13566;SDS011;6855;48.112;11.298;2024-03-02T03:34:22;12.00;;;9.10;;
13566;SDS011;6855;48.112;11.298;2024-03-02T03:36:49;12.27;;;8.40;;
13566;SDS011;6855;48.112;11.298;2024-03-02T03:39:16;11.50;;;8.17;;
13566;SDS011;6855;48.112;11.298;2024-03-02T03:41:43;10.50;;;7.57;;
13566;SDS011;6855;48.112;11.298;2024-03-02T03:44:11;11.20;;;8.90;;
13566;SDS011;6855;48.112;11.298;2024-03-02T03:46:38;13.20;;;8.47;;
13566;SDS011;6855;48.112;11.298;2024-03-02T03:49:06;11.63;;;7.70;;
13566;SDS011;6855;48.112;11.298;2024-03-02T03:51:33;13.13;;;8.53;;
13566;SDS011;6855;48.112;11.298;2024-03-02T03:54:01;12.23;;;8.60;;
13566;SDS011;6855;48.112;11.298;2024-03-02T03:56:28;11.40;;;7.80;;
13566;SDS011;6855;48.112;11.298;2024-03-02T03:58:55;13.70;;;8.30;;
13566;SDS011;6855;48.112;11.298;2024-03-02T04:01:24;12.93;;;8.80;;
13566;SDS011;6855;48.112;11.298;2024-03-02T04:03:52;12.40;;;8.43;;
13566;SDS011;6855;48.112;11.298;2024-03-02T04:06:20;12.57;;;8.60;;
13566;SDS011;6855;48.112;11.298;2024-03-02T04:08:47;12.40;;;8.57;;
13566;SDS011;6855;48.112;11.298;2024-03-02T04:11:15;12.23;;;7.70;;
13566;SDS011;6855;48.112;11.298;2024-03-02T04:13:42;13.17;;;8.57;;
13566;SDS011;6855;48.112;11.298;2024-03-02T04:16:09;10.10;;;7.73;;
13566;SDS011;6855;48.112;11.298;2024-03-02T04:18:37;13.40;;;9.00;;
13566;SDS011;6855;48.112;11.298;2024-03-02T04:21:04;11.77;;;8.13;;
13566;SDS011;6855;48.112;11.298;2024-03-02T04:23:33;12.00;;;8.50;;
13566;SDS011;6855;48.112;11.298;2024-03-02T04:26:00;12.13;;;7.37;;
13566;SDS011;6855;48.112;11.298;2024-03-02T04:28:28;13.03;;;8.47;;
13566;SDS011;6855;48.112;11.298;2024-03-02T04:30:55;17.80;;;8.63;;
13566;SDS011;6855;48.112;11.298;2024-03-02T04:33:22;14.67;;;9.00;;
13566;SDS011;6855;48.112;11.298;2024-03-02T04:35:49;11.87;;;8.17;;
13566;SDS011;6855;48.112;11.298;2024-03-02T04:38:16;13.27;;;8.93;;
13566;SDS011;6855;48.112;11.298;2024-03-02T04:40:45;15.37;;;9.50;;
13566;SDS011;6855;48.112;11.298;2024-03-02T04:43:12;11.67;;;7.83;;
13566;SDS011;6855;48.112;11.298;2024-03-02T04:45:41;13.30;;;9.20;;
13566;SDS011;6855;48.112;11.298;2024-03-02T04:48:08;12.03;;;7.90;;
13566;SDS011;6855;48.112;11.298;2024-03-02T04:50:36;11.50;;;8.03;;
13566;SDS011;6855;48.112;11.298;2024-03-02T04:53:06;10.97;;;7.67;;
13566;SDS011;6855;48.112;11.298;2024-03-02T04:55:33;11.60;;;8.27;;
13566;SDS011;6855;48.112;11.298;2024-03-02T04:58:46;12.57;;;8.10;;
13566;SDS011;6855;48.112;11.298;2024-03-02T05:01:13;12.40;;;8.70;;
13566;SDS011;6855;48.112;11.298;2024-03-02T05:03:42;11.60;;;8.30;;
13566;SDS011;6855;48.112;11.298;2024-03-02T05:06:10;13.33;;;8.50;;
13566;SDS011;6855;48.112;11.298;2024-03-02T05:08:37;10.50;;;7.87;;
13566;SDS011;6855;48.112;11.298;2024-03-02T05:11:04;13.30;;;9.03;;
13566;SDS011;6855;48.112;11.298;2024-03-02T05:13:47;13.90;;;9.07;;
13566;SDS011;6855;48.112;11.298;2024-03-02T05:16:14;14.60;;;10.87;;
13566;SDS011;6855;48.112;11.298;2024-03-02T05:18:41;19.07;;;11.80;;
13566;SDS011;6855;48.112;11.298;2024-03-02T05:21:08;16.60;;;10.20;;
13566;SDS011;6855;48.112;11.298;2024-03-02T05:23:36;12.73;;;9.50;;
13566;SDS011;6855;48.112;11.298;2024-03-02T05:26:03;15.30;;;11.00;;
13566;SDS011;6855;48.112;11.298;2024-03-02T05:28:31;15.43;;;10.27;;
13566;SDS011;6855;48.112;11.298;2024-03-02T05:31:00;14.17;;;9.60;;
13566;SDS011;6855;48.112;11.298;2024-03-02T05:33:27;14.80;;;9.63;;
13566;SDS011;6855;48.112;11.298;2024-03-02T05:35:56;16.00;;;9.97;;
13566;SDS011;6855;48.112;11.298;2024-03-02T05:38:23;20.63;;;11.53;;
13566;SDS011;6855;48.112;11.298;2024-03-02T05:40:50;14.67;;;11.43;;
13566;SDS011;6855;48.112;11.298;2024-03-02T05:43:18;14.70;;;9.70;;
13566;SDS011;6855;48.112;11.298;2024-03-02T05:45:45;15.43;;;10.10;;
13566;SDS011;6855;48.112;11.298;2024-03-02T05:48:14;15.67;;;9.60;;
13566;SDS011;6855;48.112;11.298;2024-03-02T05:50:41;12.90;;;9.13;;
13566;SDS011;6855;48.112;11.298;2024-03-02T05:53:08;15.23;;;9.97;;
13566;SDS011;6855;48.112;11.298;2024-03-02T05:55:35;14.93;;;9.90;;
13566;SDS011;6855;48.112;11.298;2024-03-02T05:58:02;14.63;;;9.60;;
13566;SDS011;6855;48.112;11.298;2024-03-02T06:00:45;15.17;;;10.47;;
13566;SDS011;6855;48.112;11.298;2024-03-02T06:03:14;15.57;;;10.30;;
13566;SDS011;6855;48.112;11.298;2024-03-02T06:05:41;15.35;;;11.00;;
13566;SDS011;6855;48.112;11.298;2024-03-02T06:08:08;18.23;;;12.27;;
13566;SDS011;6855;48.112;11.298;2024-03-02T06:10:35;15.07;;;10.53;;
13566;SDS011;6855;48.112;11.298;2024-03-02T06:13:03;17.40;;;10.00;;
13566;SDS011;6855;48.112;11.298;2024-03-02T06:15:30;15.73;;;10.20;;
13566;SDS011;6855;48.112;11.298;2024-03-02T06:17:58;15.07;;;9.40;;
13566;SDS011;6855;48.112;11.298;2024-03-02T06:20:26;16.33;;;10.60;;
13566;SDS011;6855;48.112;11.298;2024-03-02T06:22:55;13.50;;;9.27;;
13566;SDS011;6855;48.112;11.298;2024-03-02T06:25:23;13.97;;;9.80;;
13566;SDS011;6855;48.112;11.298;2024-03-02T06:27:50;16.60;;;9.53;;
13566;SDS011;6855;48.112;11.298;2024-03-02T06:30:17;15.83;;;9.30;;
13566;SDS011;6855;48.112;11.298;2024-03-02T06:32:44;14.73;;;10.00;;
13566;SDS011;6855;48.112;11.298;2024-03-02T06:35:11;15.60;;;9.70;;
13566;SDS011;6855;48.112;11.298;2024-03-02T06:37:40;11.40;;;8.10;;
13566;SDS011;6855;48.112;11.298;2024-03-02T06:40:07;13.07;;;8.90;;
13566;SDS011;6855;48.112;11.298;2024-03-02T06:42:35;15.00;;;9.87;;
13566;SDS011;6855;48.112;11.298;2024-03-02T06:45:02;15.47;;;9.87;;
13566;SDS011;6855;48.112;11.298;2024-03-02T06:47:29;13.40;;;9.00;;
13566;SDS011;6855;48.112;11.298;2024-03-02T06:49:57;12.40;;;8.80;;
13566;SDS011;6855;48.112;11.298;2024-03-02T06:52:24;21.80;;;9.30;;
13566;SDS011;6855;48.112;11.298;2024-03-02T06:54:53;12.40;;;8.97;;
13566;SDS011;6855;48.112;11.298;2024-03-02T06:57:20;11.77;;;8.57;;
13566;SDS011;6855;48.112;11.298;2024-03-02T06:59:47;11.43;;;8.03;;
13566;SDS011;6855;48.112;11.298;2024-03-02T07:02:16;11.77;;;7.93;;
13566;SDS011;6855;48.112;11.298;2024-03-02T07:04:43;13.13;;;7.90;;
13566;SDS011;6855;48.112;11.298;2024-03-02T07:07:11;11.10;;;7.50;;
13566;SDS011;6855;48.112;11.298;2024-03-02T07:09:38;10.23;;;7.67;;
13566;SDS011;6855;48.112;11.298;2024-03-02T07:12:06;12.77;;;7.90;;
13566;SDS011;6855;48.112;11.298;2024-03-02T07:14:34;12.10;;;8.37;;
13566;SDS011;6855;48.112;11.298;2024-03-02T07:17:19;13.27;;;8.90;;
13566;SDS011;6855;48.112;11.298;2024-03-02T07:19:46;11.10;;;8.40;;
13566;SDS011;6855;48.112;11.298;2024-03-02T07:22:13;13.53;;;8.50;;
13566;SDS011;6855;48.112;11.298;2024-03-02T07:24:40;13.80;;;8.20;;
13566;SDS011;6855;48.112;11.298;2024-03-02T07:27:09;13.17;;;9.47;;
13566;SDS011;6855;48.112;11.298;2024-03-02T07:29:37;13.40;;;8.90;;
13566;SDS011;6855;48.112;11.298;2024-03-02T07:32:05;11.00;;;8.00;;
13566;SDS011;6855;48.112;11.298;2024-03-02T07:34:32;7.27;;;6.13;;
13566;SDS011;6855;48.112;11.298;2024-03-02T07:36:59;9.10;;;6.83;;
13566;SDS011;6855;48.112;11.298;2024-03-02T07:39:26;7.40;;;6.70;;
13566;SDS011;6855;48.112;11.298;2024-03-02T07:41:54;6.27;;;5.67;;
13566;SDS011;6855;48.112;11.298;2024-03-02T07:44:23;7.20;;;6.47;;
13566;SDS011;6855;48.112;11.298;2024-03-02T07:46:50;6.63;;;5.77;;
13566;SDS011;6855;48.112;11.298;2024-03-02T07:49:17;6.13;;;5.53;;
13566;SDS011;6855;48.112;11.298;2024-03-02T07:51:45;9.67;;;7.00;;
13566;SDS011;6855;48.112;11.298;2024-03-02T07:54:12;6.70;;;5.63;;
13566;SDS011;6855;48.112;11.298;2024-03-02T07:56:39;7.70;;;6.83;;
13566;SDS011;6855;48.112;11.298;2024-03-02T07:59:07;7.37;;;6.67;;
13566;SDS011;6855;48.112;11.298;2024-03-02T08:01:35;7.30;;;6.30;;
13566;SDS011;6855;48.112;11.298;2024-03-02T08:04:03;5.40;;;4.90;;
13566;SDS011;6855;48.112;11.298;2024-03-02T08:06:30;6.50;;;4.77;;
13566;SDS011;6855;48.112;11.298;2024-03-02T08:08:58;4.97;;;4.47;;
13566;SDS011;6855;48.112;11.298;2024-03-02T08:11:25;4.40;;;4.00;;
13566;SDS011;6855;48.112;11.298;2024-03-02T08:13:54;4.80;;;4.30;;
13566;SDS011;6855;48.112;11.298;2024-03-02T08:16:25;5.80;;;4.83;;
13566;SDS011;6855;48.112;11.298;2024-03-02T08:18:53;5.90;;;5.00;;
13566;SDS011;6855;48.112;11.298;2024-03-02T08:21:22;5.00;;;4.40;;
13566;SDS011;6855;48.112;11.298;2024-03-02T08:23:50;5.53;;;4.93;;
13566;SDS011;6855;48.112;11.298;2024-03-02T08:26:17;5.30;;;4.30;;
13566;SDS011;6855;48.112;11.298;2024-03-02T08:28:44;4.80;;;4.40;;
13566;SDS011;6855;48.112;11.298;2024-03-02T08:31:11;4.50;;;4.10;;
13566;SDS011;6855;48.112;11.298;2024-03-02T08:33:38;4.20;;;3.90;;
13566;SDS011;6855;48.112;11.298;2024-03-02T08:36:08;4.00;;;3.70;;
13566;SDS011;6855;48.112;11.298;2024-03-02T08:38:36;4.43;;;4.00;;
13566;SDS011;6855;48.112;11.298;2024-03-02T08:41:03;4.47;;;3.83;;
13566;SDS011;6855;48.112;11.298;2024-03-02T08:43:30;4.43;;;4.03;;
13566;SDS011;6855;48.112;11.298;2024-03-02T08:45:57;3.87;;;3.50;;
13566;SDS011;6855;48.112;11.298;2024-03-02T08:48:25;4.17;;;3.80;;
13566;SDS011;6855;48.112;11.298;2024-03-02T08:50:52;5.33;;;3.60;;
13566;SDS011;6855;48.112;11.298;2024-03-02T08:53:21;3.73;;;3.43;;
13566;SDS011;6855;48.112;11.298;2024-03-02T08:55:48;3.67;;;3.37;;
13566;SDS011;6855;48.112;11.298;2024-03-02T08:58:15;4.50;;;3.20;;
13566;SDS011;6855;48.112;11.298;2024-03-02T09:00:43;4.07;;;3.67;;
13566;SDS011;6855;48.112;11.298;2024-03-02T09:03:10;4.03;;;3.63;;
13566;SDS011;6855;48.112;11.298;2024-03-02T09:05:37;3.10;;;2.87;;
13566;SDS011;6855;48.112;11.298;2024-03-02T09:08:05;3.90;;;3.60;;
13566;SDS011;6855;48.112;11.298;2024-03-02T09:10:33;4.20;;;3.70;;
13566;SDS011;6855;48.112;11.298;2024-03-02T09:13:00;6.03;;;4.10;;
13566;SDS011;6855;48.112;11.298;2024-03-02T09:15:28;5.00;;;4.17;;
13566;SDS011;6855;48.112;11.298;2024-03-02T09:17:55;4.97;;;4.20;;
13566;SDS011;6855;48.112;11.298;2024-03-02T09:20:22;3.80;;;3.43;;
13566;SDS011;6855;48.112;11.298;2024-03-02T09:22:49;5.00;;;4.20;;
13566;SDS011;6855;48.112;11.298;2024-03-02T09:25:17;5.00;;;4.40;;
13566;SDS011;6855;48.112;11.298;2024-03-02T09:27:45;5.03;;;4.53;;
13566;SDS011;6855;48.112;11.298;2024-03-02T09:30:12;4.67;;;4.03;;
13566;SDS011;6855;48.112;11.298;2024-03-02T09:32:40;11.70;;;4.80;;
13566;SDS011;6855;48.112;11.298;2024-03-02T09:35:08;4.53;;;4.13;;
13566;SDS011;6855;48.112;11.298;2024-03-02T09:37:35;4.97;;;3.93;;
13566;SDS011;6855;48.112;11.298;2024-03-02T09:40:02;5.93;;;4.53;;
13566;SDS011;6855;48.112;11.298;2024-03-02T09:42:31;6.97;;;4.63;;
13566;SDS011;6855;48.112;11.298;2024-03-02T09:45:00;5.83;;;5.03;;
13566;SDS011;6855;48.112;11.298;2024-03-02T09:47:27;7.70;;;5.00;;
13566;SDS011;6855;48.112;11.298;2024-03-02T09:49:54;5.30;;;4.67;;
13566;SDS011;6855;48.112;11.298;2024-03-02T09:52:22;7.60;;;4.77;;
13566;SDS011;6855;48.112;11.298;2024-03-02T09:54:49;4.83;;;4.00;;
13566;SDS011;6855;48.112;11.298;2024-03-02T09:57:16;5.20;;;4.07;;
13566;SDS011;6855;48.112;11.298;2024-03-02T09:59:43;6.30;;;4.30;;
13566;SDS011;6855;48.112;11.298;2024-03-02T10:02:12;4.77;;;4.10;;
13566;SDS011;6855;48.112;11.298;2024-03-02T10:04:39;6.10;;;4.33;;
13566;SDS011;6855;48.112;11.298;2024-03-02T10:07:10;10.53;;;5.00;;
13566;SDS011;6855;48.112;11.298;2024-03-02T10:09:37;5.33;;;3.63;;
13566;SDS011;6855;48.112;11.298;2024-03-02T10:12:05;4.93;;;3.77;;
13566;SDS011;6855;48.112;11.298;2024-03-02T10:14:33;6.90;;;4.87;;
13566;SDS011;6855;48.112;11.298;2024-03-02T10:17:03;10.13;;;4.80;;
13566;SDS011;6855;48.112;11.298;2024-03-02T10:19:32;9.53;;;6.20;;
13566;SDS011;6855;48.112;11.298;2024-03-02T10:22:00;7.70;;;6.10;;
13566;SDS011;6855;48.112;11.298;2024-03-02T10:24:28;7.77;;;5.77;;
13566;SDS011;6855;48.112;11.298;2024-03-02T10:27:01;6.90;;;5.77;;
13566;SDS011;6855;48.112;11.298;2024-03-02T10:29:29;7.53;;;6.50;;
13566;SDS011;6855;48.112;11.298;2024-03-02T10:31:56;11.33;;;6.70;;
13566;SDS011;6855;48.112;11.298;2024-03-02T10:34:25;10.90;;;7.90;;
13566;SDS011;6855;48.112;11.298;2024-03-02T10:36:53;11.00;;;7.77;;
13566;SDS011;6855;48.112;11.298;2024-03-02T10:39:21;10.47;;;6.80;;
13566;SDS011;6855;48.112;11.298;2024-03-02T10:41:51;8.13;;;7.10;;
13566;SDS011;6855;48.112;11.298;2024-03-02T10:44:18;9.53;;;7.10;;
13566;SDS011;6855;48.112;11.298;2024-03-02T10:46:46;10.17;;;7.57;;
13566;SDS011;6855;48.112;11.298;2024-03-02T10:49:14;8.87;;;7.33;;
13566;SDS011;6855;48.112;11.298;2024-03-02T10:51:41;11.83;;;7.50;;
13566;SDS011;6855;48.112;11.298;2024-03-02T10:54:10;13.87;;;6.50;;
13566;SDS011;6855;48.112;11.298;2024-03-02T10:56:38;11.33;;;7.77;;
13566;SDS011;6855;48.112;11.298;2024-03-02T10:59:06;10.40;;;7.60;;
13566;SDS011;6855;48.112;11.298;2024-03-02T11:01:38;9.70;;;7.90;;
13566;SDS011;6855;48.112;11.298;2024-03-02T11:04:07;10.30;;;7.70;;
13566;SDS011;6855;48.112;11.298;2024-03-02T11:06:35;13.17;;;8.47;;
13566;SDS011;6855;48.112;11.298;2024-03-02T11:09:05;9.97;;;7.77;;
13566;SDS011;6855;48.112;11.298;2024-03-02T11:11:36;15.43;;;7.53;;
13566;SDS011;6855;48.112;11.298;2024-03-02T11:14:04;10.60;;;8.00;;
13566;SDS011;6855;48.112;11.298;2024-03-02T11:16:35;10.70;;;7.50;;
13566;SDS011;6855;48.112;11.298;2024-03-02T11:19:04;9.20;;;7.20;;
13566;SDS011;6855;48.112;11.298;2024-03-02T11:21:32;9.60;;;7.10;;
13566;SDS011;6855;48.112;11.298;2024-03-02T11:24:00;9.53;;;6.80;;
13566;SDS011;6855;48.112;11.298;2024-03-02T11:26:28;8.37;;;6.30;;
13566;SDS011;6855;48.112;11.298;2024-03-02T11:28:56;8.00;;;6.00;;
13566;SDS011;6855;48.112;11.298;2024-03-02T11:34:17;6.90;;;5.40;;
13566;SDS011;6855;48.112;11.298;2024-03-02T11:36:44;6.03;;;4.57;;
13566;SDS011;6855;48.112;11.298;2024-03-02T11:39:11;5.17;;;4.30;;
13566;SDS011;6855;48.112;11.298;2024-03-02T11:41:39;5.90;;;4.70;;
13566;SDS011;6855;48.112;11.298;2024-03-02T11:44:07;4.70;;;3.70;;
13566;SDS011;6855;48.112;11.298;2024-03-02T11:46:48;7.20;;;3.43;;
13566;SDS011;6855;48.112;11.298;2024-03-02T12:30:19;3.23;;;2.57;;
13566;SDS011;6855;48.112;11.298;2024-03-02T12:33:01;4.87;;;2.77;;
13566;SDS011;6855;48.112;11.298;2024-03-02T12:35:55;4.90;;;3.20;;
13566;SDS011;6855;48.112;11.298;2024-03-02T12:45:03;4.40;;;3.80;;
13566;SDS011;6855;48.112;11.298;2024-03-02T13:08:44;10.50;;;7.77;;
13566;SDS011;6855;48.112;11.298;2024-03-02T13:12:09;8.90;;;7.00;;
13566;SDS011;6855;48.112;11.298;2024-03-02T13:21:32;11.80;;;7.80;;
13566;SDS011;6855;48.112;11.298;2024-03-02T13:45:37;9.73;;;8.40;;
13566;SDS011;6855;48.112;11.298;2024-03-02T14:07:20;12.90;;;9.13;;
13566;SDS011;6855;48.112;11.298;2024-03-02T14:09:48;14.43;;;8.70;;
13566;SDS011;6855;48.112;11.298;2024-03-02T14:12:15;11.10;;;8.27;;
13566;SDS011;6855;48.112;11.298;2024-03-02T14:14:42;11.17;;;8.80;;
13566;SDS011;6855;48.112;11.298;2024-03-02T14:17:09;11.77;;;8.10;;
13566;SDS011;6855;48.112;11.298;2024-03-02T14:19:39;16.10;;;10.77;;
13566;SDS011;6855;48.112;11.298;2024-03-02T14:22:07;13.10;;;8.87;;
13566;SDS011;6855;48.112;11.298;2024-03-02T14:24:35;13.57;;;8.67;;
13566;SDS011;6855;48.112;11.298;2024-03-02T14:27:02;11.73;;;8.40;;
13566;SDS011;6855;48.112;11.298;2024-03-02T14:29:30;11.27;;;8.03;;
13566;SDS011;6855;48.112;11.298;2024-03-02T14:32:01;12.20;;;8.87;;
13566;SDS011;6855;48.112;11.298;2024-03-02T14:34:28;11.87;;;8.63;;
13566;SDS011;6855;48.112;11.298;2024-03-02T14:36:56;10.37;;;8.20;;
13566;SDS011;6855;48.112;11.298;2024-03-02T14:39:23;13.90;;;9.83;;
13566;SDS011;6855;48.112;11.298;2024-03-02T14:41:51;11.73;;;8.73;;
13566;SDS011;6855;48.112;11.298;2024-03-02T14:44:20;13.10;;;9.17;;
13566;SDS011;6855;48.112;11.298;2024-03-02T14:46:47;12.87;;;9.23;;
13566;SDS011;6855;48.112;11.298;2024-03-02T14:49:15;12.20;;;9.50;;
13566;SDS011;6855;48.112;11.298;2024-03-02T14:51:43;12.80;;;9.17;;
13566;SDS011;6855;48.112;11.298;2024-03-02T14:54:10;15.20;;;9.43;;
13566;SDS011;6855;48.112;11.298;2024-03-02T14:56:37;15.73;;;9.10;;
13566;SDS011;6855;48.112;11.298;2024-03-02T14:59:06;13.47;;;8.70;;
13566;SDS011;6855;48.112;11.298;2024-03-02T15:01:34;12.83;;;9.60;;
13566;SDS011;6855;48.112;11.298;2024-03-02T15:04:02;14.50;;;10.23;;
13566;SDS011;6855;48.112;11.298;2024-03-02T15:06:30;15.27;;;9.30;;
13566;SDS011;6855;48.112;11.298;2024-03-02T15:08:57;16.57;;;9.97;;
13566;SDS011;6855;48.112;11.298;2024-03-02T15:11:26;17.07;;;10.00;;
13566;SDS011;6855;48.112;11.298;2024-03-02T15:13:54;13.33;;;9.53;;
13566;SDS011;6855;48.112;11.298;2024-03-02T15:16:22;12.67;;;8.57;;
13566;SDS011;6855;48.112;11.298;2024-03-02T15:18:49;18.60;;;8.53;;
13566;SDS011;6855;48.112;11.298;2024-03-02T15:21:17;12.43;;;8.30;;
13566;SDS011;6855;48.112;11.298;2024-03-02T15:23:45;13.00;;;8.83;;
13566;SDS011;6855;48.112;11.298;2024-03-02T15:26:13;15.23;;;10.17;;
13566;SDS011;6855;48.112;11.298;2024-03-02T15:28:40;14.03;;;9.07;;
13566;SDS011;6855;48.112;11.298;2024-03-02T15:31:07;16.47;;;10.80;;
13566;SDS011;6855;48.112;11.298;2024-03-02T15:33:36;19.77;;;9.90;;
13566;SDS011;6855;48.112;11.298;2024-03-02T15:36:04;16.00;;;9.90;;
13566;SDS011;6855;48.112;11.298;2024-03-02T15:38:31;17.30;;;9.10;;
13566;SDS011;6855;48.112;11.298;2024-03-02T15:41:02;17.07;;;8.93;;
13566;SDS011;6855;48.112;11.298;2024-03-02T15:43:29;12.90;;;8.33;;
13566;SDS011;6855;48.112;11.298;2024-03-02T15:45:57;16.30;;;10.23;;
13566;SDS011;6855;48.112;11.298;2024-03-02T15:48:25;16.17;;;9.60;;
13566;SDS011;6855;48.112;11.298;2024-03-02T15:50:54;17.73;;;11.07;;
13566;SDS011;6855;48.112;11.298;2024-03-02T15:53:22;22.27;;;11.90;;
13566;SDS011;6855;48.112;11.298;2024-03-02T15:55:49;19.60;;;11.90;;
13566;SDS011;6855;48.112;11.298;2024-03-02T15:58:16;21.33;;;12.40;;
13566;SDS011;6855;48.112;11.298;2024-03-02T16:00:43;18.83;;;10.93;;
13566;SDS011;6855;48.112;11.298;2024-03-02T16:03:11;19.20;;;10.83;;
13566;SDS011;6855;48.112;11.298;2024-03-02T16:05:38;17.07;;;10.40;;
13566;SDS011;6855;48.112;11.298;2024-03-02T16:08:07;19.10;;;11.23;;
13566;SDS011;6855;48.112;11.298;2024-03-02T16:10:34;18.40;;;11.40;;
13566;SDS011;6855;48.112;11.298;2024-03-02T16:13:01;18.97;;;11.10;;
13566;SDS011;6855;48.112;11.298;2024-03-02T16:15:28;21.10;;;11.97;;
13566;SDS011;6855;48.112;11.298;2024-03-02T16:17:55;17.90;;;11.53;;
13566;SDS011;6855;48.112;11.298;2024-03-02T16:20:24;20.83;;;12.47;;
13566;SDS011;6855;48.112;11.298;2024-03-02T16:22:51;19.20;;;11.43;;
13566;SDS011;6855;48.112;11.298;2024-03-02T16:25:20;18.87;;;11.70;;
13566;SDS011;6855;48.112;11.298;2024-03-02T16:27:49;25.40;;;12.50;;
13566;SDS011;6855;48.112;11.298;2024-03-02T16:30:17;21.03;;;13.23;;
13566;SDS011;6855;48.112;11.298;2024-03-02T16:32:45;24.00;;;12.97;;
13566;SDS011;6855;48.112;11.298;2024-03-02T16:35:12;19.03;;;12.03;;
13566;SDS011;6855;48.112;11.298;2024-03-02T16:37:40;23.70;;;14.10;;
13566;SDS011;6855;48.112;11.298;2024-03-02T16:40:08;18.43;;;12.00;;
13566;SDS011;6855;48.112;11.298;2024-03-02T16:42:39;23.37;;;13.30;;